Terminal Aerodrome Forecast
Issued by NWS

Home | Current Version | Previous Version | Text Only | Print | Product List | Glossary On
Versions: 1 2 3 4 5 6 7 8 9 10 11 12 13 14 15 16 17 18 19 20 21 22 23 24 25 26
000
FTUS45 KREV 071125
TAFTRK
TAF
KTRK 071125Z 0712/0812 00000KT P6SM BKN110
     FM071900 17008KT P6SM FEW050 SCT110 SCT250
     FM072300 25008KT P6SM VCTS SCT050CB BKN080
     FM080200 28006KT P6SM VCSH SCT050 BKN090
     FM080500 VRB03KT P6SM SCT100 BKN200=

USA.gov is the U.S. government's official web portal to all federal, state and local government web resources and services.